createdAt,value
2022-08-12T00:03:26.199Z,2.10
2022-08-12T00:08:52.654Z,1.92
2022-08-12T00:14:14.708Z,2.03
2022-08-12T00:19:35.104Z,1.63
2022-08-12T00:24:58.171Z,2.90
2022-08-12T00:30:19.364Z,2.05
2022-08-12T00:35:40.521Z,2.10
2022-08-12T00:41:02.819Z,1.85
2022-08-12T00:46:23.227Z,2.17
2022-08-12T00:51:48.868Z,2.45
2022-08-12T00:56:51.200Z,2.10
2022-08-12T01:02:00.974Z,1.73
2022-08-12T01:07:32.996Z,2.45
2022-08-12T01:12:36.631Z,2.05
2022-08-12T01:17:42.032Z,2.42
2022-08-12T01:23:21.070Z,2.00
2022-08-12T01:28:24.631Z,2.03
2022-08-12T01:33:29.529Z,1.88
2022-08-12T01:38:33.840Z,2.07
2022-08-12T01:43:36.820Z,2.30
2022-08-12T01:49:21.785Z,2.08
2022-08-12T01:54:24.198Z,2.35
2022-08-12T01:59:49.810Z,2.00
2022-08-12T02:05:25.262Z,2.42
2022-08-12T02:11:18.429Z,2.30
2022-08-12T02:16:45.391Z,2.33
2022-08-12T02:21:58.506Z,2.20
2022-08-12T02:27:01.876Z,2.55
2022-08-12T02:32:04.366Z,2.58
2022-08-12T02:37:09.080Z,2.45
2022-08-12T02:42:15.156Z,3.08
2022-08-12T02:47:59.374Z,2.67
2022-08-12T02:52:41.171Z,2.72
2022-08-12T02:57:44.783Z,2.90
2022-08-12T03:02:47.782Z,3.10
2022-08-12T03:07:59.615Z,3.05
2022-08-12T03:13:04.421Z,2.38
2022-08-12T03:18:26.259Z,2.92
2022-08-12T03:23:31.548Z,2.70
2022-08-12T03:28:50.542Z,3.28
2022-08-12T03:34:00.498Z,2.63
2022-08-12T03:39:17.092Z,3.17
2022-08-12T03:45:05.404Z,2.90
2022-08-12T03:50:26.549Z,3.22
2022-08-12T03:55:47.136Z,2.63
2022-08-12T04:00:49.101Z,3.42
2022-08-12T04:05:56.167Z,3.60
2022-08-12T04:11:16.934Z,3.53
2022-08-12T04:16:20.329Z,3.25
2022-08-12T04:21:22.120Z,3.30
2022-08-12T04:26:23.682Z,3.33
2022-08-12T04:31:34.687Z,3.47
2022-08-12T04:36:41.217Z,3.35
2022-08-12T04:41:54.385Z,3.45
2022-08-12T04:47:00.336Z,3.22
2022-08-12T04:52:03.402Z,3.35
2022-08-12T04:57:09.720Z,3.25
2022-08-12T05:02:17.044Z,3.65
2022-08-12T05:07:24.250Z,3.22
2022-08-12T05:12:28.321Z,3.10
2022-08-12T05:17:29.880Z,3.30
2022-08-12T05:22:31.948Z,3.45
2022-08-12T05:27:55.311Z,3.67
2022-08-12T05:33:05.354Z,3.92
2022-08-12T05:38:28.579Z,3.08
2022-08-12T05:43:30.283Z,4.45
2022-08-12T05:48:33.036Z,3.70
2022-08-12T05:53:34.666Z,3.45
2022-08-12T05:58:36.199Z,3.72
2022-08-12T06:03:37.860Z,4.05
2022-08-12T06:08:39.433Z,3.72
2022-08-12T06:13:54.168Z,4.00
2022-08-12T06:18:56.284Z,3.53
2022-08-12T06:23:58.362Z,3.65
2022-08-12T06:29:00.770Z,3.17
2022-08-12T06:35:23.027Z,2.88
2022-08-12T06:39:24.552Z,3.20
2022-08-12T06:44:26.168Z,2.88
2022-08-12T06:49:36.333Z,2.85
2022-08-12T06:54:38.035Z,2.80
2022-08-12T06:59:41.006Z,3.20
2022-08-12T07:04:43.427Z,2.72
2022-08-12T07:10:07.088Z,2.85
2022-08-12T07:15:07.113Z,2.70
2022-08-12T07:20:29.516Z,3.10
2022-08-12T07:25:41.020Z,3.47
2022-08-12T07:30:45.332Z,2.65
2022-08-12T07:35:48.133Z,2.83
2022-08-12T07:40:53.823Z,2.80
2022-08-12T07:45:55.552Z,2.67
2022-08-12T07:50:57.081Z,2.97
2022-08-12T07:55:58.963Z,2.72
2022-08-12T08:01:00.828Z,2.78
2022-08-12T08:06:02.975Z,4.55
2022-08-12T08:11:23.112Z,2.78
2022-08-12T08:16:25.495Z,2.67
2022-08-12T08:21:32.897Z,2.40
2022-08-12T08:26:34.394Z,2.47
2022-08-12T08:31:36.371Z,2.22
2022-08-12T08:36:41.921Z,2.08
2022-08-12T08:42:15.751Z,1.90
2022-08-12T08:47:22.023Z,2.58
2022-08-12T08:52:39.399Z,2.33
2022-08-12T08:57:49.381Z,2.55
2022-08-12T09:08:22.434Z,2.17
2022-08-12T09:13:29.246Z,2.20
2022-08-12T09:18:52.673Z,2.80
2022-08-12T09:24:05.950Z,2.15
2022-08-12T09:29:08.519Z,1.88
2022-08-12T09:34:27.994Z,2.40
2022-08-12T09:40:08.099Z,1.85
2022-08-12T09:45:18.904Z,1.60
2022-08-12T09:50:30.461Z,1.52
2022-08-12T09:56:32.066Z,2.45
2022-08-12T10:01:15.242Z,1.77
2022-08-12T10:06:32.404Z,2.00
2022-08-12T10:12:12.142Z,1.70
2022-08-12T10:17:15.481Z,1.85
2022-08-12T10:22:39.088Z,1.92
2022-08-12T10:28:04.718Z,1.73
2022-08-12T10:33:18.068Z,1.75
2022-08-12T10:38:38.714Z,1.80
2022-08-12T10:43:55.979Z,2.20
2022-08-12T10:49:07.062Z,1.85
2022-08-12T10:54:27.192Z,2.00
2022-08-12T11:00:30.604Z,1.85
2022-08-12T11:07:03.263Z,1.67
2022-08-12T11:10:26.564Z,2.22
2022-08-12T11:16:02.704Z,1.52
2022-08-12T11:20:52.214Z,2.07
2022-08-12T11:25:57.902Z,1.30
2022-08-12T11:31:00.864Z,1.27
2022-08-12T11:36:14.875Z,1.52
2022-08-12T11:41:17.379Z,1.58
2022-08-12T11:46:30.605Z,1.70
2022-08-12T11:51:36.568Z,1.77
2022-08-12T11:56:45.940Z,1.92
2022-08-12T12:02:04.771Z,1.83
2022-08-12T12:07:11.380Z,1.77
2022-08-12T12:12:13.150Z,2.08
2022-08-12T12:17:14.748Z,1.55
2022-08-12T12:22:23.198Z,1.80
2022-08-12T12:28:03.659Z,1.83
2022-08-12T12:38:05.327Z,1.70
2022-08-12T12:43:14.979Z,1.98
2022-08-12T12:48:21.095Z,1.30
2022-08-12T12:54:06.033Z,2.28
2022-08-12T12:58:44.986Z,1.63
2022-08-12T13:03:49.135Z,1.85
2022-08-12T13:08:54.611Z,1.60
2022-08-12T13:14:09.693Z,1.80
2022-08-12T13:19:13.232Z,2.10
2022-08-12T13:24:16.807Z,1.60
2022-08-12T13:29:20.673Z,1.77
2022-08-12T13:34:32.170Z,1.80
2022-08-12T13:39:35.810Z,1.60
2022-08-12T13:44:37.332Z,1.40
2022-08-12T13:49:54.117Z,1.67
2022-08-12T13:54:57.470Z,1.63
2022-08-12T14:00:00.545Z,1.48
2022-08-12T14:05:03.762Z,2.00
2022-08-12T14:10:37.568Z,1.85
2022-08-12T14:15:41.379Z,1.90
2022-08-12T14:20:47.556Z,2.10
2022-08-12T14:25:51.379Z,1.60
2022-08-12T14:31:03.019Z,1.95
2022-08-12T14:36:07.975Z,1.80
2022-08-12T14:41:13.502Z,1.77
2022-08-12T14:46:19.049Z,1.70
2022-08-12T14:52:48.348Z,1.70
2022-08-12T14:57:19.345Z,1.90
2022-08-12T15:02:10.482Z,1.67
2022-08-12T15:07:43.795Z,1.67
2022-08-12T15:12:35.618Z,2.28
2022-08-12T15:17:42.350Z,1.50
2022-08-12T15:22:54.195Z,1.70
2022-08-12T15:28:03.800Z,1.95
2022-08-12T15:33:12.643Z,1.50
2022-08-12T15:38:25.327Z,1.63
2022-08-12T15:44:17.026Z,1.70
2022-08-12T15:48:53.717Z,2.25
2022-08-12T15:54:32.251Z,1.92
2022-08-12T15:59:59.909Z,1.95
2022-08-12T16:05:01.282Z,1.15
2022-08-12T16:10:06.193Z,1.48
2022-08-12T16:15:12.074Z,1.42
2022-08-12T16:20:27.871Z,1.08
2022-08-12T16:26:02.655Z,1.33
2022-08-12T16:31:05.818Z,1.67
2022-08-12T16:36:18.984Z,1.20
2022-08-12T16:41:22.447Z,1.70
2022-08-12T16:46:32.563Z,1.15
2022-08-12T16:51:40.286Z,1.83
2022-08-12T16:56:54.596Z,1.50
2022-08-12T17:01:57.750Z,1.45
2022-08-12T17:07:01.439Z,1.30
2022-08-12T17:12:04.868Z,1.08
2022-08-12T17:17:12.431Z,1.15
2022-08-12T17:22:30.538Z,1.38
2022-08-12T17:27:43.722Z,1.38
2022-08-12T17:32:53.122Z,1.60
2022-08-12T17:38:00.074Z,1.00
2022-08-12T17:43:57.586Z,1.63
2022-08-12T17:48:38.293Z,1.10
2022-08-12T17:54:05.678Z,0.95
2022-08-12T17:59:07.445Z,1.70
2022-08-12T18:04:21.432Z,1.33
2022-08-12T18:09:32.152Z,1.40
2022-08-12T18:14:41.686Z,1.10
2022-08-12T18:20:06.007Z,1.50
2022-08-12T18:26:12.135Z,1.40
2022-08-12T18:30:34.599Z,1.30
2022-08-12T18:35:47.402Z,1.05
2022-08-12T18:41:21.777Z,1.63
2022-08-12T18:46:54.239Z,1.48
2022-08-12T18:52:04.529Z,1.70
2022-08-12T18:57:16.689Z,1.65
2022-08-12T19:02:23.254Z,1.50
2022-08-12T19:07:29.677Z,1.42
2022-08-12T19:13:08.308Z,1.58
2022-08-12T19:18:11.041Z,1.50
2022-08-12T19:23:16.650Z,1.52
2022-08-12T19:28:29.601Z,2.05
2022-08-12T19:33:33.494Z,2.22
2022-08-12T19:38:46.818Z,1.50
2022-08-12T19:44:00.628Z,2.70
2022-08-12T19:49:22.294Z,3.10
2022-08-12T19:54:30.299Z,3.30
2022-08-12T19:59:43.420Z,2.60
2022-08-12T20:06:05.722Z,3.15
2022-08-12T20:10:36.280Z,3.42
2022-08-12T20:15:44.447Z,4.60
2022-08-12T20:20:47.364Z,2.60
2022-08-12T20:25:53.506Z,2.25
2022-08-12T20:31:06.530Z,2.40
2022-08-12T20:36:40.641Z,2.85
2022-08-12T20:41:33.157Z,2.42
2022-08-12T20:46:36.645Z,2.60
2022-08-12T20:51:50.911Z,2.40
2022-08-12T20:56:57.991Z,2.30
2022-08-12T21:02:04.877Z,3.60
2022-08-12T21:12:27.584Z,2.47
2022-08-12T21:17:34.007Z,2.53
2022-08-12T21:22:55.201Z,2.70
2022-08-12T21:27:58.214Z,3.50
2022-08-12T21:33:02.555Z,2.17
2022-08-12T21:38:05.263Z,2.80
2022-08-12T21:43:09.890Z,2.30
2022-08-12T21:48:11.789Z,2.95
2022-08-12T21:53:15.343Z,2.53
2022-08-12T21:58:21.268Z,2.90
2022-08-12T22:04:04.094Z,3.17
2022-08-12T22:09:08.953Z,3.00
2022-08-12T22:14:21.797Z,2.45
2022-08-12T22:19:26.682Z,3.63
2022-08-12T22:24:30.735Z,2.72
2022-08-12T22:29:50.961Z,2.90
2022-08-12T22:35:12.416Z,2.20
2022-08-12T22:40:25.167Z,2.60
2022-08-12T22:45:56.323Z,2.92
2022-08-12T22:51:00.802Z,2.35
2022-08-12T22:56:06.501Z,2.28
2022-08-12T23:01:11.249Z,2.20
2022-08-12T23:06:16.650Z,2.63
2022-08-12T23:11:23.184Z,2.20
2022-08-12T23:16:30.629Z,2.65
2022-08-12T23:22:03.727Z,2.72
2022-08-12T23:27:14.605Z,2.72
2022-08-12T23:32:35.226Z,2.45
2022-08-12T23:37:47.485Z,2.25
2022-08-12T23:42:56.908Z,2.22
2022-08-12T23:48:00.458Z,2.58
2022-08-12T23:53:06.617Z,2.95
2022-08-12T23:58:22.781Z,2.65
